• Join FlightAware (Why Join?)
  • Login
  • US Flag 
07:28AM EST


 

Airport Tracker/Info


-or-


 

Live Flight TrackerFlight Track Log ✈ N29134 ✈ 27-Aug-2014 ✈ KAVP - KFOK

Flight Track Log - Related Links

Times and Time Zones

All times are in EDT time to prevent confusion due to time zone crossing. See the N29134 flight status page for this flight to view local times or setup timezone preferences in your user account.

Time Position Orientation Groundspeed Altitude Reporting Facility
EDT Latitude Longitude Course Direction KTS MPH feet Rate Location/Type
08:49PM 41.2819 -75.6964 35° Northeast 93 107 7,500  Level New York Center
08:50PM 41.3339 -75.6450 37° Northeast 169 194 9,300 1,980 Climbing New York Center
08:51PM 41.3022 -75.5542 115° Southeast 170 196 11,500 1,860 Climbing New York Center
08:52PM 41.2402 -75.1411 102° East  Level FlightAware Approximate
08:52PM 41.2581 -75.4628 123° Southeast 261 300 13,200  Level New York Center
08:53PM 41.2103 -75.3519 120° Southeast 309 356 15,500 2,040 Climbing New York Center
08:54PM 41.1642 -75.2494 121° Southeast 315 362 17,300 1,680 Climbing New York Center
08:55PM 41.1239 -75.1561 120° Southeast 328 377 18,900 840 Climbing New York Center
08:56PM 41.0739 -75.0428 120° Southeast 346 398 19,000  Climbing New York Center
08:57PM 41.0167 -74.8989 118° Southeast 387 445 19,000  Level New York Center
08:58PM 40.9944 -74.7517 101° East 405 466 19,000  Level New York Center
08:59PM 40.9936 -74.5869 90° East 433 498 19,000  Level New York Center
09:00PM 41.0333 -74.4569 68° East 398 458 19,000  Level New York Center
09:01PM 41.0744 -74.3381 65° Northeast 363 418 19,000  Level New York Center
09:02PM 41.0489 -74.2131 105° East 337 388 19,000  Level New York Center
09:03PM 41.0000 -74.1667 144° Southeast 355 409 19,000 -180 Level New York TRACON
09:03PM 40.9000 -74.1333 166° South 345 397 18,800 -900 Descending New York TRACON
09:04PM 40.8167 -74.1000 163° South 343 395 17,400 -1,500 Descending New York TRACON
09:05PM 40.7333 -74.0667 163° South 332 382 16,000 -1,200 Descending New York TRACON
09:06PM 40.6500 -74.0167 156° South 336 387 14,900 -1,260 Descending New York TRACON
09:07PM 40.5667 -73.9667 155° Southeast 345 397 13,500 -1,560 Descending New York TRACON
09:08PM 40.5000 -73.8833 136° Southeast 319 367 11,800 -1,620 Descending New York TRACON
09:09PM 40.4333 -73.8333 150° Southeast 297 342 10,300 -1,860 Descending New York TRACON
09:10PM 40.3667 -73.7667 143° Southeast 290 334 8,300 -2,040 Descending New York TRACON
09:11PM 40.3333 -73.6667 114° Southeast 278 320 6,100 -2,040 Descending New York TRACON
09:12PM 40.3500 -73.5833 75° East 262 302 4,100 -1,080 Descending New York TRACON
09:13PM 40.3833 -73.4833 66° East 278 320 4,000 -60 Descending New York TRACON
09:14PM 40.4167 -73.4167 57° Northeast 278 320 4,000  Level New York TRACON
09:15PM 40.4639 -73.3486 48° Northeast 279 321 4,000  Level Boston Center
09:16PM 40.5092 -73.2661 54° Northeast 279 321 4,000  Level Boston Center
09:17PM 40.5539 -73.1817 55° Northeast 279 321 4,000  Level Boston Center
09:18PM 40.5989 -73.0978 55° Northeast 279 321 4,000  Level Boston Center
09:19PM 40.6500 -73.0167 50° Northeast 272 313 4,000 -300 Level New York TRACON
09:20PM 40.6833 -72.9167 66° East 271 312 3,500 -900 Descending New York TRACON
09:21PM 40.7333 -72.8500 45° Northeast 241 277 2,300 -840 Descending New York TRACON
09:22PM 40.7667 -72.8000 49° Northeast 202 232 2,000 -180 Descending New York TRACON
09:23PM 40.7833 -72.7333 72° East 198 228 2,000 -300 Level New York TRACON
09:24PM 40.8000 -72.6667 72° East 206 237 1,500 -300 Descending New York TRACON
09:25PM 40.8333 -72.6000 57° Northeast 182 209 1,500 -180 Level New York TRACON
09:26PM 40.8667 -72.5667 37° Northeast 156 180 1,200 -540 Descending New York TRACON
09:27PM 40.8667 -72.6000 270° West 122 140 500 -360 Descending New York TRACON
09:30PM 40.8419 -72.6347 227° Southwest 54 62 100 -120 Descending Boston Center
09:31PM 40.8417 -72.6394 266° West 28 32 100  Level Boston Center
09:32PM 40.8436 -72.6400 348° North 14 16 100  Level Boston Center
09:33PM 40.8444 -72.6406 333° Northwest 8 9 100  Level Boston Center